KIAD/IAD METAR and TAF weather

Enter ICAO airport designator
Station Type Date Time Source
KIAD METAR 2021/04/18 00:52 UTC NOAA

KIAD 180052Z 03006KT 10SM BKN120 BKN150 OVC200 13/04 A2985 RMK AO2 SLP109 T01280039


Station Type Date Time Source
KIAD Decoded METAR 2021/04/18 00:52 UTC NOAA

DULLES INTERNATIONAL AIRPORT, VA, United States (KIAD) 38-56N 077-27W 93M
Apr 17, 2021 - 08:52 PM EDT / 2021.04.18 0052 UTC
Wind: from the NNE (030 degrees) at 7 MPH (6 KT):0
Visibility: 10 mile(s):0
Sky conditions: overcast
Temperature: 55.0 F (12.8 C)
Dew Point: 39.0 F (3.9 C)
Relative Humidity: 54%
Pressure (altimeter): 29.85 in. Hg (1010 hPa)
ob: KIAD 180052Z 03006KT 10SM BKN120 BKN150 OVC200 13/04 A2985 RMK AO2 SLP109 T01280039
cycle: 1

Station Type Date Time Source
KIAD TAF 2021/04/17 21:33 UTC NOAA

TAF
AMD KIAD 172030Z 1721/1824 35009G16KT P6SM BKN045 BKN170
FM172300 34005KT P6SM OVC050
FM180800 31003KT P6SM SCT120
FM181800 30006KT P6SM FEW045 SCT100

Example: see airport list